createdAt,value
2022-11-16T04:59:42.656Z,50.25
2022-11-16T05:02:46.110Z,49.22
2022-11-16T05:05:50.298Z,51.28
2022-11-16T05:08:53.302Z,49.92
2022-11-16T05:11:55.830Z,51.50
2022-11-16T05:14:59.250Z,56.28
2022-11-16T05:18:01.972Z,50.35
2022-11-16T05:21:05.061Z,49.67
2022-11-16T05:24:27.173Z,50.72
2022-11-16T05:27:31.046Z,54.80
2022-11-16T05:30:33.664Z,56.83
2022-11-16T05:33:38.052Z,47.97
2022-11-16T05:36:40.982Z,52.15
2022-11-16T05:39:44.053Z,51.70
2022-11-16T05:42:46.690Z,65.60
2022-11-16T05:45:49.470Z,57.17
2022-11-16T05:48:52.259Z,60.83
2022-11-16T05:51:55.125Z,52.72
2022-11-16T05:54:57.927Z,60.20
2022-11-16T05:58:01.031Z,60.92
2022-11-16T06:01:04.079Z,60.95
2022-11-16T06:04:07.747Z,64.28
2022-11-16T06:07:10.426Z,64.12
2022-11-16T06:10:13.342Z,62.10
2022-11-16T06:13:17.296Z,57.38
2022-11-16T06:16:20.344Z,55.28
2022-11-16T06:19:26.960Z,58.67
2022-11-16T06:25:38.532Z,54.63
2022-11-16T06:28:41.828Z,58.03
2022-11-16T06:31:44.534Z,63.85
2022-11-16T06:34:48.207Z,67.72
2022-11-16T06:37:51.156Z,64.95
2022-11-16T06:40:58.324Z,63.20
2022-11-16T06:44:01.688Z,64.82
2022-11-16T06:47:05.127Z,66.22
2022-11-16T06:50:08.851Z,59.72
2022-11-16T06:53:11.661Z,64.62
2022-11-16T06:56:16.350Z,64.43
2022-11-16T06:59:19.820Z,67.55
2022-11-16T07:02:23.261Z,61.97
2022-11-16T07:05:26.204Z,59.40
2022-11-16T07:08:30.187Z,66.10
2022-11-16T07:11:34.634Z,61.28
2022-11-16T07:14:37.507Z,61.85
2022-11-16T07:17:41.515Z,60.20
2022-11-16T07:20:44.424Z,58.58
2022-11-16T07:23:47.358Z,57.97
2022-11-16T07:26:50.864Z,61.08
2022-11-16T07:29:54.301Z,67.72
2022-11-16T07:32:58.918Z,61.65
2022-11-16T07:36:10.140Z,62.78
2022-11-16T07:39:13.121Z,68.50
2022-11-16T07:42:16.053Z,61.45
2022-11-16T07:45:18.830Z,59.85
2022-11-16T07:48:23.188Z,59.90
2022-11-16T07:51:27.976Z,64.70
2022-11-16T07:54:33.606Z,63.30
2022-11-16T07:57:36.285Z,65.32
2022-11-16T08:00:39.504Z,66.05
2022-11-16T08:03:44.749Z,62.92
2022-11-16T08:06:47.916Z,68.80
2022-11-16T08:09:51.083Z,64.75
2022-11-16T08:12:54.788Z,61.58
2022-11-16T08:16:02.385Z,67.07
2022-11-16T08:19:05.041Z,63.97
2022-11-16T08:22:09.613Z,63.63
2022-11-16T08:25:14.331Z,64.25
2022-11-16T08:28:17.707Z,56.60
2022-11-16T08:31:31.479Z,70.43
2022-11-16T08:34:34.832Z,61.65
2022-11-16T08:37:39.195Z,62.67
2022-11-16T08:40:43.426Z,61.97
2022-11-16T08:43:47.395Z,66.53
2022-11-16T08:46:50.787Z,68.55
2022-11-16T08:49:53.730Z,65.28
2022-11-16T08:52:57.409Z,64.05
2022-11-16T08:56:11.770Z,60.72
2022-11-16T08:59:14.879Z,66.40
2022-11-16T09:02:25.431Z,63.22
2022-11-16T09:05:28.858Z,59.67
2022-11-16T09:08:31.820Z,56.47
2022-11-16T09:11:34.788Z,66.30
2022-11-16T09:14:37.227Z,74.57
2022-11-16T09:17:40.075Z,65.82
2022-11-16T09:20:45.657Z,65.93
2022-11-16T09:23:49.456Z,72.55
2022-11-16T09:26:51.903Z,61.85
2022-11-16T09:29:54.679Z,60.38
2022-11-16T09:32:59.058Z,60.33
2022-11-16T09:36:07.017Z,55.20
2022-11-16T09:39:30.510Z,53.15
2022-11-16T09:43:15.605Z,52.83
2022-11-16T09:46:36.506Z,49.60
2022-11-16T09:50:03.711Z,55.80
2022-11-16T09:53:36.298Z,52.08
2022-11-16T09:56:42.475Z,51.78
2022-11-16T09:59:52.214Z,57.17
2022-11-16T10:06:21.413Z,61.63
2022-11-16T10:09:25.856Z,51.30
2022-11-16T10:12:43.626Z,59.53
2022-11-16T10:16:14.287Z,54.00
2022-11-16T10:19:34.750Z,57.92
2022-11-16T10:22:54.508Z,49.58
2022-11-16T10:26:19.791Z,47.17
2022-11-16T10:29:46.577Z,51.08
2022-11-16T10:32:55.459Z,53.25
2022-11-16T10:35:58.205Z,48.30
2022-11-16T10:39:02.502Z,50.92
2022-11-16T10:42:10.931Z,50.40
2022-11-16T10:45:21.689Z,52.40
2022-11-16T10:48:53.494Z,49.05
2022-11-16T10:51:56.664Z,48.55
2022-11-16T10:54:59.197Z,52.22
2022-11-16T10:58:04.871Z,51.10
2022-11-16T11:01:10.831Z,44.28
2022-11-16T11:04:21.974Z,52.50
2022-11-16T11:07:39.959Z,49.00
2022-11-16T11:10:43.299Z,45.95
2022-11-16T11:13:45.935Z,45.17
2022-11-16T11:16:53.472Z,45.70
2022-11-16T11:20:04.321Z,48.53
2022-11-16T11:23:20.708Z,46.53
2022-11-16T11:26:36.174Z,42.83
2022-11-16T11:29:42.624Z,41.75
2022-11-16T11:32:46.146Z,43.75
2022-11-16T11:35:58.940Z,41.53
2022-11-16T11:39:07.836Z,41.45
2022-11-16T11:42:13.795Z,44.60
2022-11-16T11:45:17.534Z,47.05
2022-11-16T11:48:42.467Z,39.42
2022-11-16T11:51:47.340Z,46.95
2022-11-16T11:54:52.418Z,40.88
2022-11-16T11:57:56.613Z,43.50
2022-11-16T12:01:20.815Z,47.75
2022-11-16T12:04:54.242Z,43.00
2022-11-16T12:08:02.908Z,46.95
2022-11-16T12:11:12.647Z,40.13
2022-11-16T12:14:21.094Z,42.67
2022-11-16T12:17:32.673Z,43.42
2022-11-16T12:21:03.899Z,44.15
2022-11-16T12:24:35.557Z,43.78
2022-11-16T12:28:06.153Z,45.60
2022-11-16T12:31:44.619Z,44.25
2022-11-16T12:35:12.178Z,42.50
2022-11-16T12:38:33.781Z,39.92
2022-11-16T12:41:55.797Z,43.40
2022-11-16T12:45:19.116Z,43.33
2022-11-16T12:48:57.643Z,48.45
2022-11-16T12:52:36.738Z,46.15
2022-11-16T12:55:56.613Z,45.30
2022-11-16T12:59:20.653Z,42.35
2022-11-16T13:02:38.547Z,42.85
2022-11-16T13:06:19.596Z,38.00
2022-11-16T13:09:27.979Z,37.55
2022-11-16T13:12:32.268Z,37.63
2022-11-16T13:15:38.575Z,42.03
2022-11-16T13:18:42.950Z,38.33
2022-11-16T13:21:56.273Z,35.53
2022-11-16T13:25:17.483Z,41.22
2022-11-16T13:28:36.781Z,42.40
2022-11-16T13:32:18.856Z,44.28
2022-11-16T13:35:23.109Z,39.05
2022-11-16T13:38:52.498Z,42.78
2022-11-16T13:42:13.423Z,40.38
2022-11-16T13:45:20.721Z,43.35
2022-11-16T13:48:38.127Z,46.13
2022-11-16T13:51:51.769Z,41.22
2022-11-16T13:54:55.980Z,39.47
2022-11-16T13:58:01.309Z,36.28
2022-11-16T14:01:10.927Z,36.45
2022-11-16T14:04:35.575Z,36.05
2022-11-16T14:07:47.214Z,33.92
2022-11-16T14:10:52.806Z,35.58
2022-11-16T14:13:55.645Z,37.17
2022-11-16T14:16:58.718Z,37.53
2022-11-16T14:20:01.399Z,33.22
2022-11-16T14:23:39.283Z,35.55
2022-11-16T14:27:00.108Z,38.50
2022-11-16T14:30:13.791Z,34.70
2022-11-16T14:33:31.159Z,33.08
2022-11-16T14:36:39.001Z,32.83
2022-11-16T14:39:45.905Z,39.85
2022-11-16T14:46:26.315Z,31.15
2022-11-16T14:49:33.557Z,33.25
2022-11-16T14:52:45.082Z,31.42
2022-11-16T14:55:47.834Z,30.08
2022-11-16T14:59:02.178Z,30.15
2022-11-16T15:02:16.358Z,37.72
2022-11-16T15:05:21.383Z,33.90
2022-11-16T15:08:31.812Z,34.45
2022-11-16T15:11:57.528Z,34.13
2022-11-16T15:15:08.030Z,28.42
2022-11-16T15:18:14.843Z,33.95
2022-11-16T15:21:24.908Z,32.92
2022-11-16T15:27:42.629Z,35.47
2022-11-16T15:30:50.380Z,33.47
2022-11-16T15:33:53.359Z,35.67
2022-11-16T15:36:55.909Z,34.92
2022-11-16T15:40:00.070Z,33.80
2022-11-16T15:43:05.840Z,36.50
2022-11-16T15:46:09.143Z,35.05
2022-11-16T15:49:26.606Z,34.28
2022-11-16T15:52:50.984Z,34.50
2022-11-16T15:55:53.599Z,28.40
2022-11-16T15:58:59.011Z,31.92
2022-11-16T16:02:03.614Z,34.67
2022-11-16T16:05:06.853Z,31.25
2022-11-16T16:08:25.968Z,29.55
2022-11-16T16:11:28.782Z,27.02
2022-11-16T16:14:31.344Z,30.92
2022-11-16T16:17:34.429Z,28.65
2022-11-16T16:20:37.729Z,31.30
2022-11-16T16:23:47.323Z,32.03
2022-11-16T16:26:49.839Z,31.15
2022-11-16T16:30:04.015Z,33.53
2022-11-16T16:33:06.587Z,31.00
2022-11-16T16:36:11.589Z,32.55
2022-11-16T16:39:13.960Z,28.52
2022-11-16T16:42:17.744Z,33.42
2022-11-16T16:45:27.224Z,33.58
2022-11-16T16:48:30.671Z,28.87
2022-11-16T16:51:33.155Z,31.02
2022-11-16T16:54:36.366Z,31.33
2022-11-16T16:57:38.843Z,36.05
